createdAt,value
2018-06-07T00:00:17.733Z,10.80
2018-06-07T00:02:46.302Z,9.23
2018-06-07T00:05:14.726Z,9.80
2018-06-07T00:07:43.200Z,10.90
2018-06-07T00:10:11.667Z,9.27
2018-06-07T00:12:40.120Z,10.13
2018-06-07T00:15:08.580Z,10.23
2018-06-07T00:17:37.011Z,12.17
2018-06-07T00:20:05.469Z,10.20
2018-06-07T00:22:33.912Z,12.77
2018-06-07T00:25:02.342Z,9.97
2018-06-07T00:27:30.788Z,13.17
2018-06-07T00:29:59.266Z,13.37
2018-06-07T00:32:27.522Z,11.90
2018-06-07T00:34:56.014Z,10.43
2018-06-07T00:37:24.502Z,12.53
2018-06-07T00:39:52.931Z,11.77
2018-06-07T00:42:21.460Z,9.70
2018-06-07T00:44:49.997Z,12.27
2018-06-07T00:47:18.444Z,13.03
2018-06-07T00:49:46.940Z,10.47
2018-06-07T00:52:15.386Z,11.40
2018-06-07T00:54:43.836Z,15.77
2018-06-07T00:57:12.290Z,10.53
2018-06-07T00:59:40.868Z,11.70
2018-06-07T01:02:09.354Z,12.43
2018-06-07T01:04:37.783Z,10.17
2018-06-07T01:07:06.330Z,10.83
2018-06-07T01:09:34.748Z,9.77
2018-06-07T01:12:03.205Z,13.17
2018-06-07T01:14:31.713Z,12.97
2018-06-07T01:17:00.293Z,12.47
2018-06-07T01:19:28.718Z,12.60
2018-06-07T01:21:57.167Z,15.00
2018-06-07T01:24:25.614Z,13.83
2018-06-07T01:26:54.069Z,12.67
2018-06-07T01:30:33.729Z,15.97
2018-06-07T01:33:33.861Z,14.70
2018-06-07T01:36:02.973Z,14.63
2018-06-07T01:38:42.685Z,15.07
2018-06-07T01:41:11.144Z,16.47
2018-06-07T01:43:39.572Z,18.57
2018-06-07T01:46:08.045Z,18.03
2018-06-07T01:48:36.503Z,20.97
2018-06-07T01:51:05.076Z,18.47
2018-06-07T01:53:33.519Z,20.77
2018-06-07T01:56:01.994Z,20.87
2018-06-07T01:58:30.459Z,23.30
2018-06-07T02:00:58.925Z,25.27
2018-06-07T02:03:27.381Z,22.93
2018-06-07T02:05:55.873Z,26.83
2018-06-07T02:08:24.313Z,22.50
2018-06-07T02:10:53.083Z,26.87
2018-06-07T02:13:21.537Z,25.30
2018-06-07T02:15:49.982Z,21.93
2018-06-07T02:18:18.432Z,25.20
2018-06-07T02:20:46.991Z,25.30
2018-06-07T02:23:15.455Z,24.47
2018-06-07T02:25:43.949Z,24.70
2018-06-07T02:28:12.455Z,27.20
2018-06-07T02:30:40.998Z,25.30
2018-06-07T02:33:09.479Z,27.07
2018-06-07T02:35:37.919Z,27.97
2018-06-07T02:38:06.453Z,25.13
2018-06-07T02:40:34.949Z,29.67
2018-06-07T02:43:03.433Z,29.93
2018-06-07T02:45:31.893Z,26.83
2018-06-07T02:48:00.494Z,31.03
2018-06-07T02:50:28.940Z,28.93
2018-06-07T02:52:57.390Z,32.77
2018-06-07T02:55:25.863Z,32.30
2018-06-07T02:57:54.328Z,35.20
2018-06-07T03:00:23.234Z,34.93
2018-06-07T03:02:51.748Z,35.97
2018-06-07T03:05:20.204Z,31.50
2018-06-07T03:07:48.656Z,35.13
2018-06-07T03:10:17.108Z,34.13
2018-06-07T03:12:45.564Z,28.67
2018-06-07T03:15:14.096Z,33.37
2018-06-07T03:17:42.672Z,37.07
2018-06-07T03:20:11.144Z,31.30
2018-06-07T03:22:39.664Z,29.37
2018-06-07T03:25:08.119Z,31.33
2018-06-07T03:27:36.567Z,28.23
2018-06-07T03:30:05.672Z,23.93
2018-06-07T03:32:34.137Z,28.00
2018-06-07T03:35:02.594Z,30.83
2018-06-07T03:37:31.044Z,26.27
2018-06-07T03:40:00.278Z,26.63
2018-06-07T03:42:28.733Z,28.30
2018-06-07T03:44:57.184Z,27.10
2018-06-07T03:47:25.650Z,29.57
2018-06-07T03:49:54.104Z,27.67
2018-06-07T03:52:22.561Z,32.40
2018-06-07T03:54:50.730Z,31.37
2018-06-07T03:57:19.166Z,31.63
2018-06-07T03:59:47.600Z,27.37
2018-06-07T04:02:16.095Z,29.23
2018-06-07T04:04:44.596Z,32.37
2018-06-07T04:07:13.072Z,31.40
2018-06-07T04:09:41.522Z,24.97
2018-06-07T04:12:10.014Z,26.03
2018-06-07T04:14:38.486Z,26.30
2018-06-07T04:17:06.969Z,26.10
2018-06-07T04:19:35.429Z,21.93
2018-06-07T04:22:03.902Z,24.43
2018-06-07T04:24:32.404Z,25.80
2018-06-07T04:27:00.837Z,25.07
2018-06-07T04:29:29.300Z,24.33
2018-06-07T04:31:57.743Z,27.33
2018-06-07T04:34:25.879Z,31.43
2018-06-07T04:36:54.323Z,32.47
2018-06-07T04:39:22.788Z,33.40
2018-06-07T04:41:50.936Z,30.53
2018-06-07T04:44:19.387Z,33.57
2018-06-07T04:46:47.839Z,31.27
2018-06-07T04:49:16.313Z,36.43
2018-06-07T04:51:47.629Z,32.10
2018-06-07T04:54:16.195Z,31.23
2018-06-07T04:56:44.668Z,33.83
2018-06-07T04:59:13.153Z,31.13
2018-06-07T05:01:41.682Z,32.33
2018-06-07T05:04:10.161Z,30.53
2018-06-07T05:06:38.421Z,27.67
2018-06-07T05:09:08.294Z,28.17
2018-06-07T05:11:36.905Z,35.30
2018-06-07T05:14:05.377Z,32.23
2018-06-07T05:16:33.827Z,29.37
2018-06-07T05:19:02.414Z,27.47
2018-06-07T05:21:30.871Z,29.77
2018-06-07T05:23:59.330Z,28.43
2018-06-07T05:26:29.197Z,24.67
2018-06-07T05:28:57.765Z,24.13
2018-06-07T05:31:26.321Z,25.07
2018-06-07T05:33:54.757Z,27.93
2018-06-07T05:36:23.343Z,26.97
2018-06-07T05:38:51.974Z,30.57
2018-06-07T05:41:20.527Z,26.50
2018-06-07T05:43:49.005Z,27.50
2018-06-07T05:46:17.441Z,30.63
2018-06-07T05:48:45.586Z,26.87
2018-06-07T05:51:14.053Z,29.67
2018-06-07T05:53:42.510Z,24.47
2018-06-07T05:56:11.063Z,28.43
2018-06-07T05:58:39.541Z,27.57
2018-06-07T06:01:07.985Z,23.20
2018-06-07T06:03:36.457Z,29.50
2018-06-07T06:06:04.992Z,29.03
2018-06-07T06:08:33.562Z,32.10
2018-06-07T06:11:02.573Z,26.10
2018-06-07T06:13:30.748Z,23.73
2018-06-07T06:15:59.534Z,21.47
2018-06-07T06:18:28.022Z,26.00
2018-06-07T06:20:56.634Z,27.77
2018-06-07T06:23:25.180Z,24.70
2018-06-07T06:25:54.072Z,25.13
2018-06-07T06:28:22.649Z,22.37
2018-06-07T06:30:50.790Z,22.17
2018-06-07T06:33:19.335Z,24.63
2018-06-07T06:35:47.793Z,23.53
2018-06-07T06:38:33.195Z,22.27
2018-06-07T06:41:02.450Z,22.87
2018-06-07T06:43:31.181Z,23.30
2018-06-07T06:45:59.358Z,26.50
2018-06-07T06:48:27.950Z,26.10
2018-06-07T06:50:56.398Z,24.40
2018-06-07T06:53:24.611Z,26.53
2018-06-07T06:55:53.120Z,28.90
2018-06-07T06:58:21.772Z,31.50
2018-06-07T07:00:50.284Z,30.73
2018-06-07T07:03:18.858Z,30.90
2018-06-07T07:05:47.342Z,27.13
2018-06-07T07:08:15.816Z,34.50
2018-06-07T07:10:44.304Z,34.20
2018-06-07T07:13:13.563Z,29.43
2018-06-07T07:15:42.144Z,27.83
2018-06-07T07:18:20.736Z,25.40
2018-06-07T07:20:49.209Z,23.70
2018-06-07T07:23:17.694Z,46.03
2018-06-07T07:25:46.352Z,20.13
2018-06-07T07:28:14.900Z,17.53
2018-06-07T07:30:43.497Z,20.70
2018-06-07T07:33:11.984Z,25.40
2018-06-07T07:35:40.517Z,21.77
2018-06-07T07:38:08.932Z,24.33
2018-06-07T07:40:37.499Z,22.80
2018-06-07T07:43:06.073Z,23.07
2018-06-07T07:45:34.548Z,20.83
2018-06-07T07:48:02.969Z,24.03
2018-06-07T07:50:31.147Z,17.63
2018-06-07T07:52:59.686Z,17.60
2018-06-07T07:55:28.143Z,16.77
2018-06-07T07:57:56.626Z,18.87
2018-06-07T08:00:25.065Z,19.43
2018-06-07T08:02:53.635Z,19.27
2018-06-07T08:05:22.099Z,14.20
2018-06-07T08:07:50.765Z,15.53
2018-06-07T08:10:19.370Z,15.13
2018-06-07T08:12:47.889Z,14.60
2018-06-07T08:15:16.467Z,16.33
2018-06-07T08:17:44.963Z,16.57
2018-06-07T08:20:13.081Z,16.07
2018-06-07T08:22:41.611Z,15.90
2018-06-07T08:25:09.812Z,16.13
2018-06-07T08:27:38.322Z,15.70
2018-06-07T08:30:07.059Z,14.10
2018-06-07T08:32:35.539Z,15.27
2018-06-07T08:35:04.129Z,16.57
2018-06-07T08:37:32.620Z,14.87
2018-06-07T08:40:01.037Z,16.83
2018-06-07T08:42:29.502Z,13.40
2018-06-07T08:44:58.022Z,13.33
2018-06-07T08:47:26.475Z,13.20
2018-06-07T08:49:54.934Z,12.13
2018-06-07T08:52:23.496Z,9.97
2018-06-07T08:54:58.060Z,11.20
2018-06-07T08:57:27.145Z,9.73
2018-06-07T08:59:55.846Z,9.93
2018-06-07T09:02:24.428Z,10.37
2018-06-07T09:04:52.897Z,10.40
2018-06-07T09:07:21.368Z,9.20
2018-06-07T09:09:49.842Z,10.40
2018-06-07T09:12:18.303Z,13.10
2018-06-07T09:14:46.819Z,10.00
2018-06-07T09:17:15.318Z,9.37
2018-06-07T09:19:43.907Z,8.87
2018-06-07T09:22:12.359Z,10.47
2018-06-07T09:24:40.841Z,9.33
2018-06-07T09:27:09.350Z,9.67
2018-06-07T09:29:37.893Z,9.47
2018-06-07T09:32:06.453Z,8.87
2018-06-07T09:34:34.945Z,10.93
2018-06-07T09:37:03.415Z,11.77
2018-06-07T09:39:32.029Z,12.07
2018-06-07T09:42:01.973Z,10.03
2018-06-07T09:44:30.436Z,10.73
2018-06-07T09:46:59.043Z,11.00
2018-06-07T09:49:27.484Z,11.83
2018-06-07T09:51:56.043Z,11.10
2018-06-07T09:54:24.564Z,9.00
2018-06-07T09:56:53.023Z,13.40
2018-06-07T09:59:21.170Z,10.23
2018-06-07T10:01:49.665Z,10.37
2018-06-07T10:04:19.116Z,10.40
2018-06-07T10:06:47.589Z,8.87
2018-06-07T10:09:16.060Z,7.27
2018-06-07T10:11:44.514Z,7.97
2018-06-07T10:14:13.054Z,7.50
2018-06-07T10:16:41.619Z,8.33
2018-06-07T10:19:10.120Z,8.70
2018-06-07T10:21:38.304Z,9.10
2018-06-07T10:24:06.930Z,8.47
2018-06-07T10:26:35.394Z,10.13
2018-06-07T10:29:03.834Z,8.73
2018-06-07T10:31:31.973Z,10.80
2018-06-07T10:34:00.440Z,11.37
2018-06-07T10:36:28.914Z,9.07
2018-06-07T10:38:57.481Z,9.87
2018-06-07T10:41:25.968Z,10.50
2018-06-07T10:43:54.445Z,10.10
2018-06-07T10:46:23.009Z,9.23
2018-06-07T10:48:51.231Z,10.50
2018-06-07T10:51:19.746Z,10.03
2018-06-07T10:53:47.903Z,9.83
2018-06-07T10:56:16.606Z,11.17
2018-06-07T10:58:45.089Z,10.73
2018-06-07T11:01:13.835Z,11.53
2018-06-07T11:03:42.442Z,9.50
2018-06-07T11:06:10.991Z,10.00
2018-06-07T11:08:39.473Z,11.97
2018-06-07T11:11:08.035Z,15.37
2018-06-07T11:13:36.157Z,9.30
2018-06-07T11:16:04.688Z,8.20
2018-06-07T11:18:33.163Z,11.43
2018-06-07T11:21:01.619Z,7.47
2018-06-07T11:23:30.181Z,8.87
2018-06-07T11:25:58.626Z,11.13
2018-06-07T11:28:27.114Z,8.93
2018-06-07T11:30:55.681Z,8.37
2018-06-07T11:33:24.243Z,8.87
2018-06-07T11:35:52.684Z,6.07
2018-06-07T11:38:21.237Z,7.23
2018-06-07T11:40:49.499Z,11.00
2018-06-07T11:43:17.945Z,7.57
2018-06-07T11:45:46.519Z,6.23
2018-06-07T11:48:15.065Z,7.07
2018-06-07T11:50:44.217Z,4.00
2018-06-07T11:53:12.667Z,5.53
2018-06-07T11:55:41.251Z,4.63
2018-06-07T11:58:09.685Z,4.77
2018-06-07T12:00:38.171Z,4.63
2018-06-07T12:03:06.661Z,4.77
2018-06-07T12:05:35.121Z,4.10
2018-06-07T12:08:03.719Z,5.13
2018-06-07T12:10:32.167Z,5.77
2018-06-07T12:13:00.632Z,5.00
2018-06-07T12:15:29.193Z,4.80
2018-06-07T12:17:57.672Z,5.97
2018-06-07T12:20:26.095Z,5.90
2018-06-07T12:22:54.568Z,5.03
2018-06-07T12:25:23.144Z,5.93
2018-06-07T12:27:51.592Z,5.67
2018-06-07T12:30:20.024Z,6.23
2018-06-07T12:32:48.558Z,5.13
2018-06-07T12:35:17.046Z,5.43
2018-06-07T12:37:45.653Z,7.23
2018-06-07T12:40:14.225Z,6.20
2018-06-07T12:42:42.790Z,4.60
2018-06-07T12:45:11.066Z,4.63
2018-06-07T12:47:39.531Z,4.30
2018-06-07T12:50:08.104Z,5.03
2018-06-07T12:52:36.616Z,4.67
2018-06-07T12:55:05.458Z,5.43
2018-06-07T12:57:33.981Z,3.50
2018-06-07T13:00:02.509Z,3.23
2018-06-07T13:02:31.100Z,5.23
2018-06-07T13:04:59.551Z,3.43
2018-06-07T13:07:28.029Z,6.07
2018-06-07T13:09:56.527Z,4.03
2018-06-07T13:12:24.975Z,3.80
2018-06-07T13:14:53.582Z,4.20
2018-06-07T13:17:22.100Z,4.00
2018-06-07T13:19:50.546Z,5.33
2018-06-07T13:22:20.242Z,3.50
2018-06-07T13:24:49.652Z,4.07
2018-06-07T13:27:18.946Z,3.60
2018-06-07T13:29:47.935Z,7.17
2018-06-07T13:32:16.488Z,5.33
2018-06-07T13:34:44.926Z,5.83
2018-06-07T13:37:13.438Z,5.37
2018-06-07T13:39:42.016Z,4.43
2018-06-07T13:42:10.480Z,6.10
2018-06-07T13:44:38.950Z,5.20
2018-06-07T13:47:07.150Z,5.23
2018-06-07T13:49:35.685Z,4.67
2018-06-07T13:52:04.136Z,4.97
2018-06-07T13:54:32.666Z,4.43
2018-06-07T13:57:00.858Z,4.10
2018-06-07T13:59:29.396Z,6.00
2018-06-07T14:01:58.109Z,5.50
2018-06-07T14:04:26.596Z,5.17
2018-06-07T14:06:55.167Z,5.30
2018-06-07T14:09:23.754Z,4.17
2018-06-07T14:11:52.301Z,6.10
2018-06-07T14:14:20.783Z,3.77
2018-06-07T14:16:49.255Z,6.07
2018-06-07T14:19:17.743Z,5.43
2018-06-07T14:21:46.321Z,4.83
2018-06-07T14:24:14.787Z,7.30
2018-06-07T14:26:43.244Z,4.50
2018-06-07T14:29:11.721Z,6.97
2018-06-07T14:31:40.220Z,5.37
2018-06-07T14:34:08.672Z,4.67
2018-06-07T14:36:37.205Z,4.97
2018-06-07T14:39:07.605Z,10.63
2018-06-07T14:41:35.800Z,5.43
2018-06-07T14:44:04.344Z,5.70
2018-06-07T14:46:32.800Z,7.70
2018-06-07T14:49:01.265Z,5.00
2018-06-07T14:51:29.726Z,6.60
2018-06-07T14:53:58.170Z,4.97
2018-06-07T14:56:26.666Z,5.30
2018-06-07T14:58:54.832Z,5.20
2018-06-07T15:01:23.559Z,8.17
2018-06-07T15:03:52.221Z,8.70
2018-06-07T15:06:20.768Z,8.67
2018-06-07T15:08:49.229Z,6.27
2018-06-07T15:11:18.024Z,6.33
2018-06-07T15:13:46.609Z,5.87
2018-06-07T15:16:15.071Z,4.80
2018-06-07T15:18:43.572Z,6.53
2018-06-07T15:21:12.108Z,6.87
2018-06-07T15:23:40.718Z,6.30
2018-06-07T15:26:09.191Z,7.17
2018-06-07T15:28:37.641Z,6.43
2018-06-07T15:31:06.161Z,7.97
2018-06-07T15:33:34.623Z,7.87
2018-06-07T15:36:03.261Z,8.70
2018-06-07T15:38:32.033Z,6.07
2018-06-07T15:41:00.844Z,7.10
2018-06-07T15:43:29.626Z,5.50
2018-06-07T15:48:32.767Z,6.23
2018-06-07T15:51:01.307Z,9.03
2018-06-07T15:53:29.788Z,8.37
2018-06-07T15:55:58.303Z,7.00
2018-06-07T15:58:26.735Z,6.07
2018-06-07T16:00:55.238Z,6.83
2018-06-07T16:03:23.806Z,7.37
2018-06-07T16:05:52.245Z,7.43
2018-06-07T16:08:20.719Z,9.07
2018-06-07T16:10:49.264Z,7.47
2018-06-07T16:13:17.730Z,10.73
2018-06-07T16:15:46.182Z,6.20
2018-06-07T16:18:14.694Z,9.40
2018-06-07T16:20:43.144Z,8.73
2018-06-07T16:23:11.625Z,7.63
2018-06-07T16:25:40.150Z,6.97
2018-06-07T16:28:08.628Z,5.83
2018-06-07T16:30:37.205Z,5.57
2018-06-07T16:33:05.730Z,5.43
2018-06-07T16:35:34.177Z,8.57
2018-06-07T16:38:02.637Z,5.80
2018-06-07T16:40:31.319Z,6.60
2018-06-07T16:42:59.787Z,6.10
2018-06-07T16:45:28.270Z,7.33
2018-06-07T16:47:56.442Z,7.83
2018-06-07T16:50:31.968Z,8.23
2018-06-07T16:53:00.609Z,8.87
2018-06-07T16:55:29.061Z,8.73
2018-06-07T16:57:57.630Z,8.03
2018-06-07T17:00:26.208Z,7.30
2018-06-07T17:02:54.641Z,7.50
2018-06-07T17:05:23.100Z,6.93
2018-06-07T17:07:51.297Z,8.43
2018-06-07T17:10:19.792Z,7.50
2018-06-07T17:12:48.244Z,7.87
2018-06-07T17:15:16.888Z,5.87
2018-06-07T17:17:45.408Z,5.73
2018-06-07T17:20:13.867Z,5.73
2018-06-07T17:22:42.362Z,7.43
2018-06-07T17:25:10.799Z,5.47
2018-06-07T17:27:39.245Z,5.70
2018-06-07T17:30:07.725Z,8.10
2018-06-07T17:32:36.285Z,9.03
2018-06-07T17:35:04.772Z,8.97
2018-06-07T17:37:33.064Z,10.13
2018-06-07T17:40:01.630Z,10.70
2018-06-07T17:42:30.201Z,11.87
2018-06-07T17:44:58.661Z,9.97
2018-06-07T17:47:27.101Z,9.50
2018-06-07T17:49:55.335Z,11.57
2018-06-07T17:52:24.154Z,9.90
2018-06-07T17:54:52.723Z,8.17
2018-06-07T17:57:21.433Z,10.20
2018-06-07T17:59:50.046Z,8.60
2018-06-07T18:02:18.535Z,9.87
2018-06-07T18:04:46.993Z,13.63
2018-06-07T18:07:15.517Z,10.53
2018-06-07T18:09:44.137Z,8.73
2018-06-07T18:12:12.644Z,7.93
2018-06-07T18:14:41.226Z,8.30
2018-06-07T18:17:09.666Z,7.50
2018-06-07T18:19:38.192Z,7.60
2018-06-07T18:22:06.804Z,8.93
2018-06-07T18:24:35.295Z,7.87
2018-06-07T18:27:03.813Z,7.60
2018-06-07T18:29:32.053Z,7.80
2018-06-07T18:32:00.530Z,9.57
2018-06-07T18:34:28.992Z,8.50
2018-06-07T18:36:57.559Z,8.83
2018-06-07T18:39:26.121Z,9.00
2018-06-07T18:41:54.653Z,7.10
2018-06-07T18:44:23.149Z,7.30
2018-06-07T18:46:51.614Z,8.33
2018-06-07T18:49:20.069Z,6.87
2018-06-07T18:51:48.537Z,8.53
2018-06-07T18:54:17.042Z,9.60
2018-06-07T18:56:45.507Z,10.33
2018-06-07T18:59:14.033Z,10.10
2018-06-07T19:01:42.582Z,8.90
2018-06-07T19:04:11.062Z,10.20
2018-06-07T19:06:39.636Z,12.20
2018-06-07T19:09:13.844Z,10.50
2018-06-07T19:11:42.439Z,10.03
2018-06-07T19:14:16.432Z,10.07
2018-06-07T19:16:44.928Z,10.57
2018-06-07T19:19:18.820Z,12.67
2018-06-07T19:21:47.468Z,11.07
2018-06-07T19:24:15.942Z,10.20
2018-06-07T19:26:49.849Z,10.90
2018-06-07T19:29:18.406Z,10.57
2018-06-07T19:31:52.225Z,11.10
2018-06-07T19:34:25.687Z,11.77
2018-06-07T19:36:54.208Z,11.77
2018-06-07T19:39:28.140Z,13.67
2018-06-07T19:42:01.938Z,16.23
2018-06-07T19:44:30.441Z,11.67
2018-06-07T19:46:58.980Z,13.80
2018-06-07T19:49:27.602Z,13.03
2018-06-07T19:51:56.152Z,11.20
2018-06-07T19:54:24.662Z,11.57
2018-06-07T19:56:53.163Z,11.27
2018-06-07T19:59:21.688Z,13.70
2018-06-07T20:01:50.148Z,11.23
2018-06-07T20:04:18.689Z,11.93
2018-06-07T20:06:47.368Z,10.77
2018-06-07T20:09:15.847Z,11.57
2018-06-07T20:11:44.324Z,10.90
2018-06-07T20:14:12.812Z,12.33
2018-06-07T20:16:41.392Z,12.20
2018-06-07T20:19:09.962Z,11.30
2018-06-07T20:21:38.129Z,15.87
2018-06-07T20:24:06.627Z,11.83
2018-06-07T20:26:35.289Z,12.00
2018-06-07T20:29:03.969Z,11.40
2018-06-07T20:31:33.636Z,10.60
2018-06-07T20:34:02.224Z,10.50
2018-06-07T20:36:30.729Z,11.03
2018-06-07T20:38:59.185Z,10.47
2018-06-07T20:41:27.774Z,11.80
2018-06-07T20:43:56.246Z,11.27
2018-06-07T20:46:24.709Z,11.37
2018-06-07T20:48:53.333Z,11.63
2018-06-07T20:51:23.379Z,11.60
2018-06-07T20:53:51.845Z,12.30
2018-06-07T20:56:20.345Z,14.30
2018-06-07T20:58:48.794Z,14.30
2018-06-07T21:01:17.249Z,16.53
2018-06-07T21:03:45.832Z,15.03
2018-06-07T21:06:14.398Z,16.53
2018-06-07T21:08:42.845Z,16.90
2018-06-07T21:11:11.441Z,18.70
2018-06-07T21:13:39.960Z,16.73
2018-06-07T21:16:08.485Z,16.40
2018-06-07T21:18:37.106Z,17.40
2018-06-07T21:21:05.563Z,16.83
2018-06-07T21:23:34.025Z,20.20
2018-06-07T21:26:02.773Z,17.17
2018-06-07T21:28:31.279Z,18.27
2018-06-07T21:30:59.873Z,20.63
2018-06-07T21:33:28.363Z,20.27
2018-06-07T21:35:56.944Z,17.93
2018-06-07T21:38:25.619Z,19.97
2018-06-07T21:40:54.215Z,21.83
2018-06-07T21:43:22.763Z,23.57
2018-06-07T21:45:51.281Z,24.10
2018-06-07T21:48:19.754Z,24.07
2018-06-07T21:50:48.212Z,23.40
2018-06-07T21:53:16.675Z,24.07
2018-06-07T21:55:45.213Z,25.30
2018-06-07T21:58:13.683Z,22.80
2018-06-07T22:00:42.162Z,23.90
2018-06-07T22:03:10.685Z,24.30
2018-06-07T22:05:39.237Z,24.00
2018-06-07T22:08:07.800Z,23.10
2018-06-07T22:10:36.315Z,24.00
2018-06-07T22:13:04.785Z,27.77
2018-06-07T22:15:33.354Z,28.83
2018-06-07T22:18:01.850Z,27.13
2018-06-07T22:20:30.383Z,32.40
2018-06-07T22:22:58.961Z,29.70
2018-06-07T22:25:27.540Z,29.87
2018-06-07T22:27:55.989Z,31.17
2018-06-07T22:30:24.453Z,32.63
2018-06-07T22:32:52.946Z,37.47
2018-06-07T22:35:22.902Z,38.73
2018-06-07T22:37:51.348Z,38.63
2018-06-07T22:40:19.915Z,39.83
2018-06-07T22:42:48.358Z,40.07
2018-06-07T22:45:16.818Z,40.20
2018-06-07T22:47:45.383Z,39.03
2018-06-07T22:50:13.836Z,44.23
2018-06-07T22:52:42.270Z,39.80
2018-06-07T22:55:10.810Z,46.43
2018-06-07T22:57:40.824Z,46.63
2018-06-07T23:00:09.460Z,50.00
2018-06-07T23:02:42.294Z,51.07
2018-06-07T23:05:10.753Z,48.63
2018-06-07T23:07:39.078Z,57.73
2018-06-07T23:10:07.590Z,54.53
2018-06-07T23:12:36.024Z,55.90
2018-06-07T23:15:04.574Z,56.67
2018-06-07T23:17:33.089Z,56.00
2018-06-07T23:20:01.649Z,57.73
2018-06-07T23:22:30.104Z,58.63
2018-06-07T23:24:58.700Z,59.13
2018-06-07T23:27:27.168Z,59.43
2018-06-07T23:29:55.634Z,63.07
2018-06-07T23:32:24.111Z,66.43
2018-06-07T23:34:52.699Z,65.17
2018-06-07T23:37:21.260Z,72.97
2018-06-07T23:39:49.731Z,71.13
2018-06-07T23:42:18.345Z,73.10
2018-06-07T23:44:46.916Z,71.17
2018-06-07T23:47:15.402Z,77.07
2018-06-07T23:49:43.934Z,74.80
2018-06-07T23:52:12.456Z,75.63
2018-06-07T23:54:40.910Z,77.33
2018-06-07T23:57:09.362Z,76.13
2018-06-07T23:59:37.802Z,75.13
